sensor_id;sensor_type;location;lat;lon;timestamp;P1;durP1;ratioP1;P2;durP2;ratioP2
17488;SDS011;8861;52.644;4.734;2022-10-31T00:01:44;4.70;;;1.90;;
17488;SDS011;8861;52.644;4.734;2022-10-31T00:04:11;4.37;;;1.80;;
17488;SDS011;8861;52.644;4.734;2022-10-31T00:06:38;6.10;;;1.87;;
17488;SDS011;8861;52.644;4.734;2022-10-31T00:09:06;4.43;;;1.83;;
17488;SDS011;8861;52.644;4.734;2022-10-31T00:11:33;5.83;;;2.10;;
17488;SDS011;8861;52.644;4.734;2022-10-31T00:14:00;7.47;;;2.30;;
17488;SDS011;8861;52.644;4.734;2022-10-31T00:16:27;3.30;;;1.77;;
17488;SDS011;8861;52.644;4.734;2022-10-31T00:18:56;4.17;;;1.83;;
17488;SDS011;8861;52.644;4.734;2022-10-31T00:21:24;7.70;;;2.60;;
17488;SDS011;8861;52.644;4.734;2022-10-31T00:23:52;4.70;;;2.10;;
17488;SDS011;8861;52.644;4.734;2022-10-31T00:26:20;4.20;;;2.23;;
17488;SDS011;8861;52.644;4.734;2022-10-31T00:28:47;8.23;;;2.37;;
17488;SDS011;8861;52.644;4.734;2022-10-31T00:31:14;6.07;;;2.30;;
17488;SDS011;8861;52.644;4.734;2022-10-31T00:33:41;3.90;;;2.10;;
17488;SDS011;8861;52.644;4.734;2022-10-31T00:36:11;4.70;;;2.30;;
17488;SDS011;8861;52.644;4.734;2022-10-31T00:38:39;4.70;;;2.70;;
17488;SDS011;8861;52.644;4.734;2022-10-31T00:41:06;5.43;;;2.70;;
17488;SDS011;8861;52.644;4.734;2022-10-31T00:43:34;5.57;;;3.10;;
17488;SDS011;8861;52.644;4.734;2022-10-31T00:46:01;6.93;;;3.93;;
17488;SDS011;8861;52.644;4.734;2022-10-31T00:48:28;6.03;;;3.80;;
17488;SDS011;8861;52.644;4.734;2022-10-31T00:50:55;8.40;;;4.60;;
17488;SDS011;8861;52.644;4.734;2022-10-31T00:53:22;7.10;;;4.20;;
17488;SDS011;8861;52.644;4.734;2022-10-31T00:55:49;7.97;;;4.53;;
17488;SDS011;8861;52.644;4.734;2022-10-31T00:58:16;10.30;;;5.70;;
17488;SDS011;8861;52.644;4.734;2022-10-31T01:00:44;8.60;;;5.00;;
17488;SDS011;8861;52.644;4.734;2022-10-31T01:03:19;7.20;;;4.87;;
17488;SDS011;8861;52.644;4.734;2022-10-31T01:05:54;10.20;;;5.10;;
17488;SDS011;8861;52.644;4.734;2022-10-31T01:08:22;13.00;;;6.10;;
17488;SDS011;8861;52.644;4.734;2022-10-31T01:10:57;6.90;;;4.93;;
17488;SDS011;8861;52.644;4.734;2022-10-31T01:13:28;6.93;;;5.43;;
17488;SDS011;8861;52.644;4.734;2022-10-31T01:15:57;9.90;;;5.37;;
17488;SDS011;8861;52.644;4.734;2022-10-31T01:18:25;8.63;;;5.50;;
17488;SDS011;8861;52.644;4.734;2022-10-31T01:20:59;8.87;;;6.00;;
17488;SDS011;8861;52.644;4.734;2022-10-31T01:23:27;10.13;;;5.83;;
17488;SDS011;8861;52.644;4.734;2022-10-31T01:26:07;8.23;;;6.07;;
17488;SDS011;8861;52.644;4.734;2022-10-31T01:28:42;10.73;;;5.87;;
17488;SDS011;8861;52.644;4.734;2022-10-31T01:31:12;9.63;;;5.97;;
17488;SDS011;8861;52.644;4.734;2022-10-31T01:33:39;9.37;;;6.00;;
17488;SDS011;8861;52.644;4.734;2022-10-31T01:36:13;8.83;;;6.13;;
17488;SDS011;8861;52.644;4.734;2022-10-31T01:38:41;7.63;;;6.20;;
17488;SDS011;8861;52.644;4.734;2022-10-31T01:41:08;7.93;;;5.57;;
17488;SDS011;8861;52.644;4.734;2022-10-31T01:43:45;8.27;;;5.50;;
17488;SDS011;8861;52.644;4.734;2022-10-31T01:46:15;7.97;;;5.53;;
17488;SDS011;8861;52.644;4.734;2022-10-31T01:48:43;7.07;;;5.50;;
17488;SDS011;8861;52.644;4.734;2022-10-31T01:51:11;8.90;;;6.10;;
17488;SDS011;8861;52.644;4.734;2022-10-31T01:53:40;11.20;;;7.10;;
17488;SDS011;8861;52.644;4.734;2022-10-31T01:56:09;11.10;;;8.23;;
17488;SDS011;8861;52.644;4.734;2022-10-31T01:58:38;10.13;;;7.67;;
17488;SDS011;8861;52.644;4.734;2022-10-31T02:01:06;11.47;;;7.90;;
17488;SDS011;8861;52.644;4.734;2022-10-31T02:03:34;10.67;;;7.63;;
17488;SDS011;8861;52.644;4.734;2022-10-31T02:06:01;10.60;;;8.03;;
17488;SDS011;8861;52.644;4.734;2022-10-31T02:08:33;13.50;;;8.93;;
17488;SDS011;8861;52.644;4.734;2022-10-31T02:11:01;15.70;;;9.00;;
17488;SDS011;8861;52.644;4.734;2022-10-31T02:13:28;11.70;;;8.80;;
17488;SDS011;8861;52.644;4.734;2022-10-31T02:15:56;12.03;;;8.50;;
17488;SDS011;8861;52.644;4.734;2022-10-31T02:18:25;12.77;;;7.90;;
17488;SDS011;8861;52.644;4.734;2022-10-31T02:20:59;12.83;;;7.90;;
17488;SDS011;8861;52.644;4.734;2022-10-31T02:23:38;8.70;;;7.17;;
17488;SDS011;8861;52.644;4.734;2022-10-31T02:26:41;9.70;;;7.03;;
17488;SDS011;8861;52.644;4.734;2022-10-31T02:32:48;9.33;;;7.77;;
17488;SDS011;8861;52.644;4.734;2022-10-31T02:35:40;10.97;;;8.13;;
17488;SDS011;8861;52.644;4.734;2022-10-31T02:38:16;10.50;;;7.70;;
17488;SDS011;8861;52.644;4.734;2022-10-31T02:40:52;13.50;;;9.53;;
17488;SDS011;8861;52.644;4.734;2022-10-31T02:43:26;11.13;;;8.87;;
17488;SDS011;8861;52.644;4.734;2022-10-31T02:46:01;13.57;;;9.37;;
17488;SDS011;8861;52.644;4.734;2022-10-31T02:48:36;12.97;;;9.60;;
17488;SDS011;8861;52.644;4.734;2022-10-31T02:51:06;14.03;;;10.20;;
17488;SDS011;8861;52.644;4.734;2022-10-31T02:53:34;13.13;;;9.93;;
17488;SDS011;8861;52.644;4.734;2022-10-31T02:56:02;12.00;;;8.80;;
17488;SDS011;8861;52.644;4.734;2022-10-31T02:58:33;14.30;;;10.37;;
17488;SDS011;8861;52.644;4.734;2022-10-31T03:04:13;14.80;;;10.97;;
17488;SDS011;8861;52.644;4.734;2022-10-31T03:06:54;15.97;;;11.50;;
17488;SDS011;8861;52.644;4.734;2022-10-31T03:09:32;15.63;;;10.73;;
17488;SDS011;8861;52.644;4.734;2022-10-31T03:12:04;16.77;;;11.13;;
17488;SDS011;8861;52.644;4.734;2022-10-31T03:14:38;14.03;;;10.90;;
17488;SDS011;8861;52.644;4.734;2022-10-31T03:17:07;15.30;;;10.70;;
17488;SDS011;8861;52.644;4.734;2022-10-31T03:19:41;13.10;;;9.83;;
17488;SDS011;8861;52.644;4.734;2022-10-31T03:22:15;14.90;;;9.87;;
17488;SDS011;8861;52.644;4.734;2022-10-31T03:24:45;16.67;;;10.40;;
17488;SDS011;8861;52.644;4.734;2022-10-31T03:27:14;15.53;;;11.67;;
17488;SDS011;8861;52.644;4.734;2022-10-31T03:29:44;16.70;;;11.77;;
17488;SDS011;8861;52.644;4.734;2022-10-31T03:32:15;15.77;;;11.47;;
17488;SDS011;8861;52.644;4.734;2022-10-31T03:34:48;16.83;;;11.60;;
17488;SDS011;8861;52.644;4.734;2022-10-31T03:37:17;16.63;;;11.67;;
17488;SDS011;8861;52.644;4.734;2022-10-31T03:39:47;19.17;;;12.63;;
17488;SDS011;8861;52.644;4.734;2022-10-31T03:42:16;15.60;;;11.83;;
17488;SDS011;8861;52.644;4.734;2022-10-31T03:44:47;13.80;;;10.77;;
17488;SDS011;8861;52.644;4.734;2022-10-31T03:47:17;14.57;;;11.10;;
17488;SDS011;8861;52.644;4.734;2022-10-31T03:49:44;15.30;;;10.90;;
17488;SDS011;8861;52.644;4.734;2022-10-31T03:52:13;15.87;;;11.40;;
17488;SDS011;8861;52.644;4.734;2022-10-31T03:54:49;13.93;;;10.77;;
17488;SDS011;8861;52.644;4.734;2022-10-31T03:57:21;13.73;;;10.27;;
17488;SDS011;8861;52.644;4.734;2022-10-31T03:59:53;12.13;;;9.70;;
17488;SDS011;8861;52.644;4.734;2022-10-31T04:02:25;12.33;;;9.37;;
17488;SDS011;8861;52.644;4.734;2022-10-31T04:05:01;10.93;;;8.77;;
17488;SDS011;8861;52.644;4.734;2022-10-31T04:07:31;11.77;;;9.00;;
17488;SDS011;8861;52.644;4.734;2022-10-31T04:10:04;10.63;;;8.80;;
17488;SDS011;8861;52.644;4.734;2022-10-31T04:12:34;10.93;;;8.80;;
17488;SDS011;8861;52.644;4.734;2022-10-31T04:15:02;12.87;;;9.37;;
17488;SDS011;8861;52.644;4.734;2022-10-31T04:17:31;10.47;;;8.70;;
17488;SDS011;8861;52.644;4.734;2022-10-31T04:20:02;9.87;;;8.30;;
17488;SDS011;8861;52.644;4.734;2022-10-31T04:22:31;9.57;;;8.00;;
17488;SDS011;8861;52.644;4.734;2022-10-31T04:24:57;10.20;;;7.90;;
17488;SDS011;8861;52.644;4.734;2022-10-31T04:27:25;10.70;;;8.23;;
17488;SDS011;8861;52.644;4.734;2022-10-31T04:29:52;10.23;;;7.70;;
17488;SDS011;8861;52.644;4.734;2022-10-31T04:32:18;12.13;;;8.70;;
17488;SDS011;8861;52.644;4.734;2022-10-31T04:34:45;9.83;;;8.07;;
17488;SDS011;8861;52.644;4.734;2022-10-31T04:37:12;10.50;;;8.00;;
17488;SDS011;8861;52.644;4.734;2022-10-31T04:39:40;10.17;;;7.83;;
17488;SDS011;8861;52.644;4.734;2022-10-31T04:42:07;9.87;;;7.97;;
17488;SDS011;8861;52.644;4.734;2022-10-31T04:44:34;10.27;;;7.90;;
17488;SDS011;8861;52.644;4.734;2022-10-31T04:47:00;10.33;;;8.37;;
17488;SDS011;8861;52.644;4.734;2022-10-31T04:49:27;9.10;;;7.50;;
17488;SDS011;8861;52.644;4.734;2022-10-31T04:51:54;10.63;;;7.90;;
17488;SDS011;8861;52.644;4.734;2022-10-31T04:54:21;10.17;;;7.97;;
17488;SDS011;8861;52.644;4.734;2022-10-31T04:56:49;10.97;;;8.63;;
17488;SDS011;8861;52.644;4.734;2022-10-31T04:59:16;10.10;;;8.07;;
17488;SDS011;8861;52.644;4.734;2022-10-31T05:01:42;10.33;;;8.27;;
17488;SDS011;8861;52.644;4.734;2022-10-31T05:04:09;11.20;;;8.27;;
17488;SDS011;8861;52.644;4.734;2022-10-31T05:06:36;10.97;;;8.97;;
17488;SDS011;8861;52.644;4.734;2022-10-31T05:09:03;9.60;;;8.33;;
17488;SDS011;8861;52.644;4.734;2022-10-31T05:11:30;13.97;;;9.77;;
17488;SDS011;8861;52.644;4.734;2022-10-31T05:13:58;12.13;;;10.13;;
17488;SDS011;8861;52.644;4.734;2022-10-31T05:16:25;12.77;;;10.43;;
17488;SDS011;8861;52.644;4.734;2022-10-31T05:18:51;13.53;;;11.43;;
17488;SDS011;8861;52.644;4.734;2022-10-31T05:21:18;14.50;;;11.73;;
17488;SDS011;8861;52.644;4.734;2022-10-31T05:23:45;13.77;;;11.30;;
17488;SDS011;8861;52.644;4.734;2022-10-31T05:26:12;15.77;;;11.93;;
17488;SDS011;8861;52.644;4.734;2022-10-31T05:28:38;14.63;;;11.90;;
17488;SDS011;8861;52.644;4.734;2022-10-31T05:31:07;13.67;;;11.17;;
17488;SDS011;8861;52.644;4.734;2022-10-31T05:33:33;14.67;;;12.03;;
17488;SDS011;8861;52.644;4.734;2022-10-31T05:36:00;14.53;;;11.90;;
17488;SDS011;8861;52.644;4.734;2022-10-31T05:38:27;14.23;;;11.40;;
17488;SDS011;8861;52.644;4.734;2022-10-31T05:40:54;13.57;;;11.07;;
17488;SDS011;8861;52.644;4.734;2022-10-31T05:43:25;14.20;;;11.03;;
17488;SDS011;8861;52.644;4.734;2022-10-31T05:45:52;14.80;;;11.40;;
17488;SDS011;8861;52.644;4.734;2022-10-31T05:48:20;14.53;;;11.50;;
17488;SDS011;8861;52.644;4.734;2022-10-31T05:50:47;12.83;;;10.80;;
17488;SDS011;8861;52.644;4.734;2022-10-31T05:53:14;13.37;;;10.00;;
17488;SDS011;8861;52.644;4.734;2022-10-31T05:55:42;14.20;;;9.83;;
17488;SDS011;8861;52.644;4.734;2022-10-31T05:58:09;11.90;;;9.90;;
17488;SDS011;8861;52.644;4.734;2022-10-31T06:00:37;13.07;;;10.23;;
17488;SDS011;8861;52.644;4.734;2022-10-31T06:03:05;12.87;;;9.87;;
17488;SDS011;8861;52.644;4.734;2022-10-31T06:05:34;13.60;;;10.70;;
17488;SDS011;8861;52.644;4.734;2022-10-31T06:08:01;14.27;;;10.33;;
17488;SDS011;8861;52.644;4.734;2022-10-31T06:10:28;13.47;;;10.47;;
17488;SDS011;8861;52.644;4.734;2022-10-31T06:12:55;15.20;;;10.17;;
17488;SDS011;8861;52.644;4.734;2022-10-31T06:15:22;16.23;;;10.47;;
17488;SDS011;8861;52.644;4.734;2022-10-31T06:17:56;13.37;;;10.80;;
17488;SDS011;8861;52.644;4.734;2022-10-31T06:20:24;14.90;;;11.53;;
17488;SDS011;8861;52.644;4.734;2022-10-31T06:22:52;14.97;;;11.30;;
17488;SDS011;8861;52.644;4.734;2022-10-31T06:25:19;14.90;;;10.73;;
17488;SDS011;8861;52.644;4.734;2022-10-31T06:27:46;13.97;;;11.13;;
17488;SDS011;8861;52.644;4.734;2022-10-31T06:30:13;19.60;;;13.50;;
17488;SDS011;8861;52.644;4.734;2022-10-31T06:32:40;17.70;;;12.97;;
17488;SDS011;8861;52.644;4.734;2022-10-31T06:35:07;17.10;;;12.93;;
17488;SDS011;8861;52.644;4.734;2022-10-31T06:37:34;16.37;;;12.50;;
17488;SDS011;8861;52.644;4.734;2022-10-31T06:40:02;15.67;;;12.20;;
17488;SDS011;8861;52.644;4.734;2022-10-31T06:42:29;15.77;;;11.53;;
17488;SDS011;8861;52.644;4.734;2022-10-31T06:44:56;15.93;;;12.57;;
17488;SDS011;8861;52.644;4.734;2022-10-31T06:47:23;17.53;;;12.90;;
17488;SDS011;8861;52.644;4.734;2022-10-31T06:49:50;20.00;;;13.60;;
17488;SDS011;8861;52.644;4.734;2022-10-31T06:52:17;16.27;;;12.30;;
17488;SDS011;8861;52.644;4.734;2022-10-31T06:54:43;19.07;;;14.40;;
17488;SDS011;8861;52.644;4.734;2022-10-31T06:57:12;19.07;;;13.53;;
17488;SDS011;8861;52.644;4.734;2022-10-31T06:59:38;20.93;;;13.97;;
17488;SDS011;8861;52.644;4.734;2022-10-31T07:02:07;21.60;;;15.50;;
17488;SDS011;8861;52.644;4.734;2022-10-31T07:04:35;22.70;;;16.87;;
17488;SDS011;8861;52.644;4.734;2022-10-31T07:07:02;20.73;;;15.17;;
17488;SDS011;8861;52.644;4.734;2022-10-31T07:09:29;25.17;;;17.90;;
17488;SDS011;8861;52.644;4.734;2022-10-31T07:11:55;29.23;;;19.53;;
17488;SDS011;8861;52.644;4.734;2022-10-31T07:14:24;31.63;;;21.20;;
17488;SDS011;8861;52.644;4.734;2022-10-31T07:16:51;32.90;;;22.93;;
17488;SDS011;8861;52.644;4.734;2022-10-31T07:19:17;33.63;;;21.60;;
17488;SDS011;8861;52.644;4.734;2022-10-31T07:21:44;30.93;;;21.10;;
17488;SDS011;8861;52.644;4.734;2022-10-31T07:24:11;32.63;;;22.73;;
17488;SDS011;8861;52.644;4.734;2022-10-31T07:26:38;29.43;;;21.13;;
17488;SDS011;8861;52.644;4.734;2022-10-31T07:29:07;27.27;;;20.07;;
17488;SDS011;8861;52.644;4.734;2022-10-31T07:31:35;28.50;;;20.43;;
17488;SDS011;8861;52.644;4.734;2022-10-31T07:34:02;32.17;;;21.90;;
17488;SDS011;8861;52.644;4.734;2022-10-31T07:36:29;34.97;;;23.33;;
17488;SDS011;8861;52.644;4.734;2022-10-31T07:38:56;32.53;;;22.20;;
17488;SDS011;8861;52.644;4.734;2022-10-31T07:41:23;39.53;;;27.90;;
17488;SDS011;8861;52.644;4.734;2022-10-31T07:43:50;39.00;;;26.93;;
17488;SDS011;8861;52.644;4.734;2022-10-31T07:46:18;36.83;;;25.30;;
17488;SDS011;8861;52.644;4.734;2022-10-31T07:48:46;35.63;;;24.87;;
17488;SDS011;8861;52.644;4.734;2022-10-31T07:51:13;35.33;;;24.20;;
17488;SDS011;8861;52.644;4.734;2022-10-31T07:53:40;40.17;;;26.17;;
17488;SDS011;8861;52.644;4.734;2022-10-31T07:56:06;47.13;;;27.53;;
17488;SDS011;8861;52.644;4.734;2022-10-31T07:58:33;43.03;;;26.87;;
17488;SDS011;8861;52.644;4.734;2022-10-31T08:01:00;38.67;;;25.53;;
17488;SDS011;8861;52.644;4.734;2022-10-31T08:03:27;34.17;;;24.03;;
17488;SDS011;8861;52.644;4.734;2022-10-31T08:05:55;41.17;;;23.50;;
17488;SDS011;8861;52.644;4.734;2022-10-31T08:08:22;43.10;;;24.83;;
17488;SDS011;8861;52.644;4.734;2022-10-31T08:10:52;36.20;;;23.43;;
17488;SDS011;8861;52.644;4.734;2022-10-31T08:13:19;36.40;;;24.07;;
17488;SDS011;8861;52.644;4.734;2022-10-31T08:15:46;41.23;;;26.80;;
17488;SDS011;8861;52.644;4.734;2022-10-31T08:18:15;39.23;;;27.03;;
17488;SDS011;8861;52.644;4.734;2022-10-31T08:20:42;37.37;;;25.50;;
17488;SDS011;8861;52.644;4.734;2022-10-31T08:23:11;33.20;;;22.87;;
17488;SDS011;8861;52.644;4.734;2022-10-31T08:25:39;40.93;;;27.60;;
17488;SDS011;8861;52.644;4.734;2022-10-31T08:28:06;37.03;;;26.27;;
17488;SDS011;8861;52.644;4.734;2022-10-31T08:30:35;39.30;;;25.87;;
17488;SDS011;8861;52.644;4.734;2022-10-31T08:33:03;36.43;;;25.17;;
17488;SDS011;8861;52.644;4.734;2022-10-31T08:35:31;40.07;;;24.97;;
17488;SDS011;8861;52.644;4.734;2022-10-31T08:37:59;36.43;;;25.23;;
17488;SDS011;8861;52.644;4.734;2022-10-31T08:40:28;39.33;;;26.27;;
17488;SDS011;8861;52.644;4.734;2022-10-31T08:42:57;37.00;;;24.83;;
17488;SDS011;8861;52.644;4.734;2022-10-31T08:45:24;40.57;;;27.00;;
17488;SDS011;8861;52.644;4.734;2022-10-31T08:47:51;39.23;;;26.17;;
17488;SDS011;8861;52.644;4.734;2022-10-31T08:50:18;36.97;;;24.07;;
17488;SDS011;8861;52.644;4.734;2022-10-31T08:52:45;40.20;;;26.57;;
17488;SDS011;8861;52.644;4.734;2022-10-31T08:55:12;38.27;;;24.87;;
17488;SDS011;8861;52.644;4.734;2022-10-31T08:57:40;34.70;;;24.37;;
17488;SDS011;8861;52.644;4.734;2022-10-31T09:00:07;38.73;;;27.17;;
17488;SDS011;8861;52.644;4.734;2022-10-31T09:02:35;41.03;;;27.10;;
17488;SDS011;8861;52.644;4.734;2022-10-31T09:05:03;40.07;;;26.33;;
17488;SDS011;8861;52.644;4.734;2022-10-31T09:07:30;40.47;;;28.13;;
17488;SDS011;8861;52.644;4.734;2022-10-31T09:09:57;46.17;;;30.27;;
17488;SDS011;8861;52.644;4.734;2022-10-31T09:12:24;37.50;;;26.77;;
17488;SDS011;8861;52.644;4.734;2022-10-31T09:14:52;35.17;;;24.40;;
17488;SDS011;8861;52.644;4.734;2022-10-31T09:17:19;39.07;;;26.40;;
17488;SDS011;8861;52.644;4.734;2022-10-31T09:19:45;34.83;;;23.30;;
17488;SDS011;8861;52.644;4.734;2022-10-31T09:22:12;30.27;;;22.03;;
17488;SDS011;8861;52.644;4.734;2022-10-31T09:24:40;39.47;;;25.00;;
17488;SDS011;8861;52.644;4.734;2022-10-31T09:27:07;34.77;;;24.33;;
17488;SDS011;8861;52.644;4.734;2022-10-31T09:29:34;43.27;;;28.47;;
17488;SDS011;8861;52.644;4.734;2022-10-31T09:32:02;42.00;;;27.83;;
17488;SDS011;8861;52.644;4.734;2022-10-31T09:34:29;36.53;;;24.63;;
17488;SDS011;8861;52.644;4.734;2022-10-31T09:36:56;33.97;;;24.30;;
17488;SDS011;8861;52.644;4.734;2022-10-31T09:39:22;35.47;;;23.70;;
17488;SDS011;8861;52.644;4.734;2022-10-31T09:41:54;32.17;;;22.23;;
17488;SDS011;8861;52.644;4.734;2022-10-31T09:44:44;38.73;;;26.47;;
17488;SDS011;8861;52.644;4.734;2022-10-31T09:47:21;38.20;;;25.03;;
17488;SDS011;8861;52.644;4.734;2022-10-31T09:50:00;36.73;;;24.53;;
17488;SDS011;8861;52.644;4.734;2022-10-31T09:52:38;36.20;;;24.20;;
17488;SDS011;8861;52.644;4.734;2022-10-31T09:55:09;32.73;;;22.37;;
17488;SDS011;8861;52.644;4.734;2022-10-31T09:57:41;33.07;;;22.23;;
17488;SDS011;8861;52.644;4.734;2022-10-31T10:00:10;32.97;;;22.23;;
17488;SDS011;8861;52.644;4.734;2022-10-31T10:02:44;35.53;;;22.57;;
17488;SDS011;8861;52.644;4.734;2022-10-31T10:05:14;33.27;;;22.73;;
17488;SDS011;8861;52.644;4.734;2022-10-31T10:07:48;33.53;;;22.07;;
17488;SDS011;8861;52.644;4.734;2022-10-31T10:10:22;32.13;;;21.43;;
17488;SDS011;8861;52.644;4.734;2022-10-31T10:13:01;33.67;;;20.33;;
17488;SDS011;8861;52.644;4.734;2022-10-31T10:15:43;28.87;;;18.40;;
17488;SDS011;8861;52.644;4.734;2022-10-31T10:18:26;29.90;;;19.23;;
17488;SDS011;8861;52.644;4.734;2022-10-31T10:21:01;28.27;;;18.13;;
17488;SDS011;8861;52.644;4.734;2022-10-31T10:23:39;26.20;;;17.47;;
17488;SDS011;8861;52.644;4.734;2022-10-31T10:26:17;22.83;;;15.33;;
17488;SDS011;8861;52.644;4.734;2022-10-31T10:28:46;21.67;;;14.53;;
17488;SDS011;8861;52.644;4.734;2022-10-31T10:31:16;19.37;;;12.97;;
17488;SDS011;8861;52.644;4.734;2022-10-31T10:33:54;20.77;;;13.57;;
17488;SDS011;8861;52.644;4.734;2022-10-31T10:36:28;18.60;;;12.20;;
17488;SDS011;8861;52.644;4.734;2022-10-31T10:39:02;17.00;;;11.53;;
17488;SDS011;8861;52.644;4.734;2022-10-31T10:41:32;17.93;;;11.80;;
17488;SDS011;8861;52.644;4.734;2022-10-31T10:43:59;18.17;;;11.97;;
17488;SDS011;8861;52.644;4.734;2022-10-31T10:46:26;19.80;;;12.57;;
17488;SDS011;8861;52.644;4.734;2022-10-31T10:49:19;17.70;;;12.67;;
17488;SDS011;8861;52.644;4.734;2022-10-31T10:51:52;18.97;;;13.53;;
17488;SDS011;8861;52.644;4.734;2022-10-31T10:57:19;20.57;;;13.07;;
17488;SDS011;8861;52.644;4.734;2022-10-31T10:59:53;16.70;;;11.87;;
17488;SDS011;8861;52.644;4.734;2022-10-31T11:02:21;17.33;;;11.63;;
17488;SDS011;8861;52.644;4.734;2022-10-31T11:04:51;16.27;;;11.17;;
17488;SDS011;8861;52.644;4.734;2022-10-31T11:07:20;18.50;;;12.27;;
17488;SDS011;8861;52.644;4.734;2022-10-31T11:09:47;14.57;;;10.50;;
17488;SDS011;8861;52.644;4.734;2022-10-31T11:12:17;17.63;;;11.47;;
17488;SDS011;8861;52.644;4.734;2022-10-31T11:14:49;17.13;;;10.80;;
17488;SDS011;8861;52.644;4.734;2022-10-31T11:17:19;15.50;;;10.50;;
17488;SDS011;8861;52.644;4.734;2022-10-31T11:20:25;22.80;;;12.67;;
17488;SDS011;8861;52.644;4.734;2022-10-31T11:23:04;19.60;;;13.10;;
17488;SDS011;8861;52.644;4.734;2022-10-31T11:25:47;19.30;;;12.47;;
17488;SDS011;8861;52.644;4.734;2022-10-31T11:28:16;19.50;;;11.87;;
17488;SDS011;8861;52.644;4.734;2022-10-31T11:30:44;20.07;;;12.23;;
17488;SDS011;8861;52.644;4.734;2022-10-31T11:33:16;20.50;;;13.13;;
17488;SDS011;8861;52.644;4.734;2022-10-31T11:35:48;20.13;;;12.93;;
17488;SDS011;8861;52.644;4.734;2022-10-31T11:38:16;24.77;;;16.23;;
17488;SDS011;8861;52.644;4.734;2022-10-31T11:40:51;27.30;;;16.73;;
17488;SDS011;8861;52.644;4.734;2022-10-31T11:43:23;23.03;;;15.30;;
17488;SDS011;8861;52.644;4.734;2022-10-31T11:45:50;23.33;;;14.43;;
17488;SDS011;8861;52.644;4.734;2022-10-31T11:48:19;24.07;;;15.43;;
17488;SDS011;8861;52.644;4.734;2022-10-31T11:50:51;25.07;;;16.37;;
17488;SDS011;8861;52.644;4.734;2022-10-31T11:53:22;26.13;;;16.00;;
17488;SDS011;8861;52.644;4.734;2022-10-31T11:56:00;20.17;;;14.50;;
17488;SDS011;8861;52.644;4.734;2022-10-31T11:58:30;21.13;;;13.43;;
17488;SDS011;8861;52.644;4.734;2022-10-31T12:00:57;20.77;;;14.17;;
17488;SDS011;8861;52.644;4.734;2022-10-31T12:03:37;18.90;;;11.77;;
17488;SDS011;8861;52.644;4.734;2022-10-31T12:06:20;16.47;;;10.53;;
17488;SDS011;8861;52.644;4.734;2022-10-31T12:08:49;14.07;;;9.87;;
17488;SDS011;8861;52.644;4.734;2022-10-31T12:11:25;12.70;;;8.63;;
17488;SDS011;8861;52.644;4.734;2022-10-31T12:14:05;13.23;;;8.83;;
17488;SDS011;8861;52.644;4.734;2022-10-31T12:16:39;11.23;;;7.63;;
17488;SDS011;8861;52.644;4.734;2022-10-31T12:19:16;11.60;;;7.30;;
17488;SDS011;8861;52.644;4.734;2022-10-31T12:21:55;9.93;;;7.03;;
17488;SDS011;8861;52.644;4.734;2022-10-31T12:24:40;11.10;;;6.97;;
17488;SDS011;8861;52.644;4.734;2022-10-31T12:27:22;11.03;;;6.80;;
17488;SDS011;8861;52.644;4.734;2022-10-31T12:30:11;8.83;;;6.37;;
17488;SDS011;8861;52.644;4.734;2022-10-31T12:32:50;11.50;;;7.07;;
17488;SDS011;8861;52.644;4.734;2022-10-31T12:35:35;9.37;;;6.63;;
17488;SDS011;8861;52.644;4.734;2022-10-31T12:38:15;8.10;;;6.00;;
17488;SDS011;8861;52.644;4.734;2022-10-31T12:40:53;14.30;;;6.87;;
17488;SDS011;8861;52.644;4.734;2022-10-31T12:43:34;10.53;;;6.80;;
17488;SDS011;8861;52.644;4.734;2022-10-31T12:46:08;11.80;;;6.80;;
17488;SDS011;8861;52.644;4.734;2022-10-31T12:48:48;9.93;;;6.93;;
17488;SDS011;8861;52.644;4.734;2022-10-31T12:51:36;9.73;;;6.60;;
17488;SDS011;8861;52.644;4.734;2022-10-31T12:54:15;8.33;;;6.30;;
17488;SDS011;8861;52.644;4.734;2022-10-31T12:56:54;15.07;;;8.43;;
17488;SDS011;8861;52.644;4.734;2022-10-31T12:59:29;14.93;;;8.50;;
17488;SDS011;8861;52.644;4.734;2022-10-31T13:02:00;13.87;;;9.20;;
17488;SDS011;8861;52.644;4.734;2022-10-31T13:04:38;16.87;;;9.50;;
17488;SDS011;8861;52.644;4.734;2022-10-31T13:07:11;15.90;;;9.83;;
17488;SDS011;8861;52.644;4.734;2022-10-31T13:09:46;14.63;;;9.90;;
17488;SDS011;8861;52.644;4.734;2022-10-31T13:12:18;16.97;;;10.80;;
17488;SDS011;8861;52.644;4.734;2022-10-31T13:14:48;15.87;;;10.60;;
17488;SDS011;8861;52.644;4.734;2022-10-31T13:17:21;17.13;;;10.90;;
17488;SDS011;8861;52.644;4.734;2022-10-31T13:19:52;16.17;;;10.07;;
17488;SDS011;8861;52.644;4.734;2022-10-31T13:22:26;18.37;;;11.67;;
17488;SDS011;8861;52.644;4.734;2022-10-31T13:24:59;15.50;;;9.90;;
17488;SDS011;8861;52.644;4.734;2022-10-31T13:27:38;19.43;;;11.80;;
17488;SDS011;8861;52.644;4.734;2022-10-31T13:30:12;20.43;;;12.27;;
17488;SDS011;8861;52.644;4.734;2022-10-31T13:32:42;16.83;;;11.20;;
17488;SDS011;8861;52.644;4.734;2022-10-31T13:35:14;15.23;;;10.57;;
17488;SDS011;8861;52.644;4.734;2022-10-31T13:37:48;14.63;;;10.50;;
17488;SDS011;8861;52.644;4.734;2022-10-31T13:40:24;16.17;;;10.57;;
17488;SDS011;8861;52.644;4.734;2022-10-31T13:42:59;16.37;;;11.03;;
17488;SDS011;8861;52.644;4.734;2022-10-31T13:45:33;14.63;;;10.47;;
17488;SDS011;8861;52.644;4.734;2022-10-31T13:48:00;21.53;;;13.07;;
17488;SDS011;8861;52.644;4.734;2022-10-31T13:50:54;21.47;;;13.70;;
17488;SDS011;8861;52.644;4.734;2022-10-31T13:53:34;19.37;;;12.67;;
17488;SDS011;8861;52.644;4.734;2022-10-31T13:56:05;22.33;;;13.60;;
17488;SDS011;8861;52.644;4.734;2022-10-31T13:58:58;24.20;;;13.37;;
17488;SDS011;8861;52.644;4.734;2022-10-31T14:01:31;16.97;;;12.20;;
17488;SDS011;8861;52.644;4.734;2022-10-31T14:04:02;18.10;;;12.57;;
17488;SDS011;8861;52.644;4.734;2022-10-31T14:06:35;20.27;;;13.13;;
17488;SDS011;8861;52.644;4.734;2022-10-31T14:09:06;23.00;;;13.67;;
17488;SDS011;8861;52.644;4.734;2022-10-31T14:11:47;24.40;;;14.17;;
17488;SDS011;8861;52.644;4.734;2022-10-31T14:14:14;19.27;;;12.57;;
17488;SDS011;8861;52.644;4.734;2022-10-31T14:16:42;21.47;;;13.70;;
17488;SDS011;8861;52.644;4.734;2022-10-31T14:19:14;20.07;;;13.47;;
17488;SDS011;8861;52.644;4.734;2022-10-31T14:21:43;20.23;;;12.80;;
17488;SDS011;8861;52.644;4.734;2022-10-31T14:24:14;19.87;;;12.63;;
17488;SDS011;8861;52.644;4.734;2022-10-31T14:26:58;19.07;;;11.37;;
17488;SDS011;8861;52.644;4.734;2022-10-31T14:29:26;16.47;;;11.13;;
17488;SDS011;8861;52.644;4.734;2022-10-31T14:31:55;16.33;;;10.93;;
17488;SDS011;8861;52.644;4.734;2022-10-31T14:34:36;17.83;;;11.47;;
17488;SDS011;8861;52.644;4.734;2022-10-31T14:40:06;22.30;;;13.47;;
17488;SDS011;8861;52.644;4.734;2022-10-31T14:42:49;19.70;;;11.80;;
17488;SDS011;8861;52.644;4.734;2022-10-31T14:45:39;20.43;;;12.73;;
17488;SDS011;8861;52.644;4.734;2022-10-31T14:48:27;23.03;;;13.17;;
17488;SDS011;8861;52.644;4.734;2022-10-31T14:51:03;21.87;;;12.63;;
17488;SDS011;8861;52.644;4.734;2022-10-31T14:53:39;18.47;;;12.10;;
17488;SDS011;8861;52.644;4.734;2022-10-31T14:56:10;20.40;;;12.67;;
17488;SDS011;8861;52.644;4.734;2022-10-31T14:58:40;16.43;;;11.10;;
17488;SDS011;8861;52.644;4.734;2022-10-31T15:01:15;20.70;;;12.27;;
17488;SDS011;8861;52.644;4.734;2022-10-31T15:03:47;19.57;;;11.67;;
17488;SDS011;8861;52.644;4.734;2022-10-31T15:06:15;18.60;;;12.50;;
17488;SDS011;8861;52.644;4.734;2022-10-31T15:08:45;17.60;;;11.77;;
17488;SDS011;8861;52.644;4.734;2022-10-31T15:11:14;20.07;;;11.33;;
17488;SDS011;8861;52.644;4.734;2022-10-31T15:13:44;18.47;;;10.67;;
17488;SDS011;8861;52.644;4.734;2022-10-31T15:16:13;19.30;;;11.17;;